Tiempo atmosférico en la estación meteorológica de Sigüenza, Guadalajara (1044 m.)



Fecha
DESCASC
Temp. máxima en grados centígrados (hora)
DESCASC
Temp. mínima en grados centígrados (hora)
DESCASC
Temp. media en grados centígrados
DESCASC
Racha de viento máxima en m/sg (hora)
DESCASC
Velocidad máxima media en intervalos de 10 minutos(hora)
DESCASC
Precipitaciones diarias en mm
DESCASC
Precipitaciones de 00:00 a 06:00 en mm
DESCASC
Precipitaciones de 06:00 a 12:00 en mm
DESCASC
Precipitaciones de 12:00 a 18:00 en mm
DESCASC
Precipitaciones de 18:00 a 24:00 en mm
DESCASC
10-11-2019 7.3 (14:00) 1.4 (00:00) 4.4 11.94 (02:40) 5.28 (15:00) 0.8 0.8 0 0 0
09-11-2019 8.4 (11:40) 0 (00:00) 4.2 8.61 (12:40) 4.72 (13:00) 0 0 0 0 0
08-11-2019 9.4 (13:20) -0.3 (00:00) 4.5 12.22 (15:30) 3.89 (15:00) 0 0 0 0 0
07-11-2019 10.1 (15:40) 1.7 (00:00) 5.9 11.11 (19:00) 4.44 (19:30) 1 0 0.2 0 0.8
06-11-2019 12.7 (15:20) 2.5 (00:00) 7.6 7.78 (15:00) 3.61 (15:40) -- 0 -- 0 0
05-11-2019 11.6 (14:10) 4.8 (00:00) 8.2 12.5 (16:20) 5 (12:40) 1.6 0 0 1.6 0
04-11-2019 13.5 (13:20) 7.2 (00:00) 10.3 14.44 (15:20) 6.94 (17:10) 4.8 0 0 0.6 4.2
03-11-2019 14.1 (13:50) 8.1 (00:00) 11.1 14.72 (09:30) 5.56 (05:10) 4 0.2 3.8 0 0
02-11-2019 15.1 (16:00) 11.7 (00:00) 13.4 9.17 (09:30) 4.44 (12:00) 3.6 0 2.6 1 0
01-11-2019 18.3 (11:50) 9.9 (00:00) 14.1 9.44 (22:20) 3.61 (13:20) 1.6 0 0 1 0.6
31-10-2019 17.7 (13:40) 9.9 (23:30) 13.8 9.17 (13:30) 2.78 (10:30) 0.6 0.4 0.2 0 0
30-10-2019 17.4 (14:10) 6.3 (00:00) 11.8 6.67 (14:20) 3.89 (14:20) -- -- 0 0 0
29-10-2019 21.1 (15:50) 4.1 (00:00) 12.6 5.83 (13:40) 3.33 (13:40) 0 0 0 0 0
28-10-2019 21.6 (15:10) 6.8 (00:00) 14.2 6.39 (15:30) 3.61 (14:20) 0 0 0 0 0
27-10-2019 21.7 (15:20) 1.7 (00:00) 11.7 5.83 (14:00) 3.06 (13:20) 0 0 0 0 0
26-10-2019 20.8 (16:20) 1.2 (00:00) 11 7.22 (14:50) 3.89 (13:40) 0 0 0 0 0
25-10-2019 20.4 (16:40) 2.8 (00:00) 11.6 5.28 (17:50) 2.78 (15:00) 0 0 0 0 0
24-10-2019 15.2 (16:10) 5.8 (00:00) 10.5 7.5 (11:00) 3.33 (12:20) 0 0 0 0 0
23-10-2019 9.6 (15:40) 5.3 (00:00) 7.5 7.22 (18:00) 3.89 (18:00) 7.8 7.2 0.6 0 0
22-10-2019 7.1 (11:00) 2.3 (00:00) 4.7 7.78 (13:50) 3.33 (16:00) 6.4 0 0.4 5.8 0.2
21-10-2019 11.4 (17:30) 0.3 (00:00) 5.8 5 (14:00) 2.22 (14:00) 0.2 0 0.2 0 0
20-10-2019 11.8 (00:00) 3.4 (00:00) 7.6 11.67 (03:50) 5 (03:30) 9.2 3 0.2 3.2 2.8
19-10-2019 15 (15:30) 10 (00:00) 12.5 11.67 (17:00) 6.67 (15:10) 3 0 0 0 3
18-10-2019 17.5 (17:00) 11.9 (00:00) 14.7 9.72 (09:10) 5.56 (17:20) 2.6 1.4 1.2 0 0
17-10-2019 12.7 (17:20) 1.5 (00:00) 7.1 8.61 (13:10) 5 (13:10) 0 0 0 0 0
16-10-2019 16.6 (16:20) 0.4 (00:00) 8.5 10 (14:30) 5.28 (14:40) 0 0 0 0 0
15-10-2019 15.3 (16:10) 1.2 (00:00) 8.3 7.78 (18:10) 4.17 (17:10) 0 0 0 0 0
14-10-2019 17.7 (16:30) 6.6 (00:00) 12.2 14.17 (12:00) 8.06 (12:00) 2.6 0 0 0.2 2.4

Gráficas

Temp. máximas Temp. mínimas Temp. medias Precipitaciones Rachas de viento máximas Velocidades máximas media en intervalos de 10 minutos

Datos horarios

Fecha y hora oficial Temperatura (ºC) Velocidad del viento (km/h) Dirección del viento Racha (km/h) Dirección de racha Precipitación (mm) Presión (hPa) Tendencia (hPa) Humedad (%)
2019-11-12 23:00:00 5.1 4 Sudoeste 10 Sudoeste 0.4 896.1 -1.7 92
2019-11-12 22:00:00 5 3 Sudoeste 6 Sudoeste 0.4 896.6 -1.6 91
2019-11-12 21:00:00 5.4 4 Sudoeste 11 Sudoeste 0.6 897.2 -0.9 88
2019-11-12 20:00:00 6.1 3 Sur 9 Sur 0.2 897.8 -1 80
2019-11-12 19:00:00 6.8 3 Sur 9 Sudoeste 0 898.2 -1.2 71
2019-11-12 18:00:00 7.3 4 Sudoeste 15 Oeste 0 898.1 -1.4 65
2019-11-12 17:00:00 7.9 4 Oeste 22 Sudoeste 0 898.8 -1.2 61
2019-11-12 16:00:00 9.8 6 Noroeste 27 Oeste 0 899.4 -1.5 56
2019-11-12 15:00:00 9.2 6 Oeste 26 Sudoeste 0 899.5 -1.7 56
2019-11-12 14:00:00 10.8 8 Oeste 24 Noroeste 0 900 -2 50
2019-11-12 13:00:00 10.2 6 Noroeste 24 Noroeste 0 900.9 -0.9 52
2019-11-12 12:00:00 8.5 5 Oeste 27 Sudoeste 0 901.2 -0.6 58
2019-11-12 11:00:00 7.3 5 Oeste 28 Norte 0 902 0.3 70
2019-11-12 10:00:00 3.9 6 Noroeste 24 Norte 0 901.8 0.4 82
2019-11-12 09:00:00 2 3 Sudoeste 10 Sudoeste 0 901.8 -0.1 94
2019-11-12 08:00:00 0.4 3 Nordeste 6 Nordeste 0 901.7 -0.2 96
2019-11-12 07:00:00 -1.3 3 Nordeste 9 Noroeste 0 901.4 -0.5 96
2019-11-12 06:00:00 -0.7 3 Norte 14 Noroeste 0 901.9 -0.3 93
2019-11-12 05:00:00 1.5 5 Noroeste 11 Noroeste 0 901.9 -0.9 88
2019-11-12 04:00:00 0.5 2 Nordeste 7 Este 0 901.9 -1.4 96
2019-11-12 03:00:00 0.2 0 Calma 6 Norte 0 902.2 -0.9 97
2019-11-12 02:00:00 -1 2 Nordeste 5 Este 0 902.8 -0.3 97
2019-11-12 01:00:00 -0.7 2 Sur 5 Sudoeste 0 903.3 -0.2 93
2019-11-12 00:00:00 0.8 4 Norte 8 Oeste 0 903.1 0.1 92
2019-11-11 23:00:00 2.1 2 Oeste 15 Norte 0 903.1 0.3 88
2019-11-11 22:00:00 3.6 4 Norte 27 Noroeste 0 903.5 1.1 84
2019-11-11 21:00:00 4 10 Noroeste 23 Noroeste 0 903 1 82
2019-11-11 20:00:00 4.7 12 Noroeste 31 Noroeste 0 902.8 0.8 78
2019-11-11 19:00:00 5.4 11 Noroeste 30 Noroeste 0 902.4 0.9 73
2019-11-11 18:00:00 6.6 10 Noroeste 31 Norte 0 902 0.8 71
2019-11-11 17:00:00 8.2 5 Noroeste 32 Norte 0 902 1 71
2019-11-11 16:00:00 8.9 8 Norte 38 Norte 0 901.5 0.2 68
2019-11-11 15:00:00 9.6 6 Noroeste 19 Sudoeste 0 901.2 -0.5 72
2019-11-11 14:00:00 7.6 5 Sur 14 Sur 0 901 -1.2 76
2019-11-11 13:00:00 7.7 8 Sur 16 Sur 0 901.3 -0.8 69
2019-11-11 12:00:00 6.5 5 Sudoeste 13 Sudoeste 0 901.7 -0.2 71
2019-11-11 11:00:00 5.1 6 Sudoeste 13 Sur 0 902.2 0.2 79
2019-11-11 10:00:00 4 9 Sur 14 Sur 0 902.1 0 82
2019-11-11 09:00:00 3.2 7 Sudoeste 12 Sur 0 901.9 -0.2 83
2019-11-11 08:00:00 2.7 4 Sudoeste 9 Sudoeste 0 902 0.2 88
2019-11-11 07:00:00 2.9 3 Sudoeste 9 Sudoeste 0 902.1 -0.4 86
2019-11-11 06:00:00 3.1 5 Sur 12 Sudoeste 0 902.1 -0.5 85
2019-11-11 05:00:00 3.1 6 Sudoeste 17 Noroeste 0 901.8 -1.1 85
2019-11-11 04:00:00 2.9 4 Noroeste 12 Noroeste 0 902.5 -0.4 86
2019-11-11 03:00:00 2.8 6 Sudoeste 15 Sudoeste 0 902.6 -0.4 86
2019-11-11 02:00:00 2.7 5 Sudoeste 19 Noroeste 0 902.9 -0.5 87
2019-11-11 01:00:00 2.6 6 Noroeste 24 Norte 0 902.9 0.1 87
2019-11-11 00:00:00 2.2 6 Noroeste 21 Noroeste 0 903 0.3 85
2019-11-10 23:00:00 2 6 Noroeste 22 Noroeste 0 903.4 0.6 85
2019-11-10 22:00:00 2.6 3 Oeste 22 Noroeste 0 902.8 0.4 83
2019-11-10 21:00:00 2.5 5 Noroeste 16 Noroeste 0 902.7 1.1 84
2019-11-10 20:00:00 2.2 4 Noroeste 15 Noroeste 0 902.8 1.7 83
2019-11-10 19:00:00 2.9 7 Noroeste 23 Noroeste 0 902.4 1.9 81
2019-11-10 18:00:00 3.8 10 Noroeste 28 Noroeste 0 901.6 1.3 77
2019-11-10 17:00:00 4.7 12 Noroeste 28 Noroeste 0 901.1 0.7 75
2019-11-10 16:00:00 5.1 5 Noroeste 35 Noroeste 0 900.5 -0.6 81
2019-11-10 15:00:00 6.2 19 Noroeste 43 Norte 0 900.3 -1.5 66
2019-11-10 14:00:00 6.7 15 Noroeste 38 Noroeste 0 900.4 -1.6 65
2019-11-10 13:00:00 6.4 9 Oeste 33 Norte 0 901.1 -0.8 65
2019-11-10 12:00:00 5.7 8 Oeste 30 Noroeste 0 901.8 -0.2 69
2019-11-10 11:00:00 4 7 Oeste 28 Sudoeste 0 902 0.3 75
2019-11-10 10:00:00 3.6 9 Oeste 23 Oeste 0 901.9 0.5 76
2019-11-10 09:00:00 2 6 Oeste 23 Noroeste 0 902 0.7 83
2019-11-10 08:00:00 1.6 4 Oeste 14 Noroeste 0 901.7 0.4 87
2019-11-10 07:00:00 1.4 4 Oeste 14 Oeste 0 901.4 0.3 87
2019-11-10 06:00:00 1.6 4 Noroeste 18 Noroeste 0 901.3 -0.1 87
2019-11-10 05:00:00 1.9 6 Noroeste 25 Noroeste 0 901.3 0 85
2019-11-10 04:00:00 2.8 8 Noroeste 27 Noroeste 0.2 901.1 0.2 82
2019-11-10 03:00:00 3.4 10 Noroeste 43 Noroeste 0 901.4 0.5 84
2019-11-10 02:00:00 3.4 4 Oeste 38 Norte 0.6 901.3 0.3 89
2019-11-10 01:00:00 6.1 8 Oeste 27 Noroeste 0 900.9 -0.4 77
2019-11-10 00:00:00 5.2 3 Oeste 15 Sudoeste 0 900.9 -0.1 90
2019-11-09 23:00:00 5.1 6 Sudoeste 20 Oeste 0 901 -0.8 94
2019-11-09 22:00:00 5 8 Sudoeste 17 Sudoeste 0 901.3 -0.9 94
2019-11-09 21:00:00 5.1 9 Sudoeste 19 Sudoeste 0 901 -1.8 94
2019-11-09 20:00:00 5.6 12 Sudoeste 27 Sur 0 901.8 -0.8 88
2019-11-09 19:00:00 5.8 6 Sudoeste 21 Sudoeste 0 902.2 -0.4 83
2019-11-09 18:00:00 6.4 9 Oeste 24 Sudoeste 0 902.8 -0.2 79
2019-11-09 17:00:00 7.3 8 Sudoeste 28 Oeste 0 902.6 -0.7 72
2019-11-09 16:00:00 7.1 7 Sudoeste 30 Sudoeste 0 902.6 -1.4 64
2019-11-09 15:00:00 7.6 12 Sudoeste 31 Oeste 0 903 -1.7 65
2019-11-09 14:00:00 7.8 13 Sudoeste 29 Sudoeste 0 903.3 -2 61
2019-11-09 13:00:00 7.9 17 Sudoeste 31 Sudoeste 0 904 -1.6 60
2019-11-09 12:00:00 8 11 Sudoeste 22 Sudoeste 0 904.7 -1 57
2019-11-09 11:00:00 6.4 9 Sudoeste 19 Sudoeste 0 905.3 -0.1 66
2019-11-09 10:00:00 4.7 8 Sudoeste 16 Sudoeste 0 905.6 0 73
2019-11-09 09:00:00 2.5 4 Sudoeste 10 Sudoeste 0 905.7 0.5 82
2019-11-09 08:00:00 2.1 3 Sudoeste 12 Sudoeste 0 905.4 0.4 81
2019-11-09 07:00:00 3 3 Sur 15 Sudoeste 0 905.6 0.6 76
2019-11-09 06:00:00 2.8 6 Sudoeste 12 Sudoeste 0 905.2 0.4 78
2019-11-09 05:00:00 2.7 3 Oeste 11 Sudoeste 0 905 0 80
2019-11-09 04:00:00 0.4 2 Norte 8 Noroeste 0 905 -0.1 88
2019-11-09 03:00:00 1.3 3 Norte 10 Oeste 0 904.8 -0.2 82
2019-11-09 02:00:00 1.7 3 Sudoeste 10 Sudoeste 0 905 0.3 81
2019-11-09 01:00:00 2.5 3 Oeste 17 Noroeste 0 905.1 0.8 76
2019-11-09 00:00:00 3.5 7 Sudoeste 19 Sudoeste 0 905 1.4 71
2019-11-08 23:00:00 4.2 3 Sudoeste 21 Oeste 0 904.7 1.9 69
2019-11-08 22:00:00 4.9 6 Sudoeste 26 Sudoeste 0 904.3 1.8 66
2019-11-08 21:00:00 5.6 7 Sudoeste 26 Sudoeste 0 903.6 2 63
2019-11-08 20:00:00 5.6 8 Sudoeste 25 Sudoeste 0 902.8 1.9 64
2019-11-08 19:00:00 6.1 8 Sudoeste 28 Sudoeste 0 902.5 2 63
2019-11-08 18:00:00 6.6 10 Sudoeste 34 Noroeste 0 901.6 1.6 59
2019-11-08 17:00:00 7.5 12 Oeste 42 Oeste 0 900.9 0.7 55
2019-11-08 16:00:00 7.7 10 Oeste 44 Sudoeste 0 900.5 0.8 53
2019-11-08 15:00:00 7.9 14 Oeste 43 Noroeste 0 900 0.3 52
2019-11-08 14:00:00 7.2 10 Oeste 39 Noroeste 0 900.2 0.5 53
2019-11-08 13:00:00 9.1 14 Oeste 39 Noroeste 0 899.7 0.5 48
2019-11-08 12:00:00 8.4 9 Oeste 30 Oeste 0 899.7 1.1 51
2019-11-08 11:00:00 6.4 13 Sur 24 Sudoeste 0 899.7 1.3 67
2019-11-08 10:00:00 3.5 12 Sudoeste 26 Noroeste 0 899.2 1.3 75
2019-11-08 09:00:00 2.7 7 Sudoeste 18 Sur 0 898.6 0.9 78
2019-11-08 08:00:00 2.1 5 Sudoeste 13 Sudoeste 0 898.4 1.3 79
2019-11-08 07:00:00 1.9 5 Sudoeste 14 Sudoeste 0 897.9 1 79
2019-11-08 06:00:00 0.7 3 Oeste 6 Noroeste 0 897.7 0.8 90
2019-11-08 05:00:00 0.1 2 Sudoeste 4 Noroeste 0 897.1 0.4 93
2019-11-08 04:00:00 -0.2 3 Sudoeste 5 Sur 0 896.9 0.3 92
2019-11-08 03:00:00 0.5 0 Calma 9 Sudoeste 0 896.9 0.4 88
2019-11-08 02:00:00 0.4 0 Calma 9 Sudoeste 0 896.7 0 90
2019-11-08 01:00:00 0.8 3 Sudoeste 10 Sur 0 896.6 -0.2 87
2019-11-08 00:00:00 1.7 8 Sudoeste 26 Sudoeste 0 896.5 -0.4 85
2019-11-07 23:00:00 2.6 7 Sudoeste 15 Sudoeste 0 896.7 -0.2 84
2019-11-07 22:00:00 2.9 6 Sudoeste 15 Sur 0 896.8 -0.6 86
2019-11-07 21:00:00 2 4 Sudoeste 9 Sur 0 896.9 0.7 91
2019-11-07 20:00:00 2.8 6 Sur 38 Sudoeste 0.6 896.9 0.9 87
2019-11-07 19:00:00 3.4 8 Noroeste 40 Noroeste 0.2 897.4 1.1 81
2019-11-07 18:00:00 7.2 13 Sudoeste 35 Sudoeste 0 896.2 -0.5 54
2019-11-07 17:00:00 8.4 11 Sudoeste 30 Oeste 0 896 -0.9 49
2019-11-07 16:00:00 9.3 10 Sudoeste 28 Oeste 0 896.3 -0.9 46
2019-11-07 15:00:00 8.5 9 Sudoeste 33 Sudoeste 0 896.7 -1 50
2019-11-07 14:00:00 8.6 9 Oeste 27 Sudoeste 0 896.9 -0.5 54
2019-11-07 13:00:00 7.8 7 Oeste 32 Oeste 0 897.2 0.6 68
2019-11-07 12:00:00 8.4 6 Noroeste 34 Oeste 0 897.7 1.2 64
2019-11-07 11:00:00 8.6 8 Oeste 31 Norte 0 897.4 1.2 65
2019-11-07 10:00:00 9.9 13 Sudoeste 34 Sudoeste 0 896.6 0.5 70
2019-11-07 09:00:00 7.6 6 Sudoeste 22 Sudoeste 0 896.5 0.1 94
2019-11-07 08:00:00 6.8 9 Sudoeste 24 Sudoeste 0 896.2 -0.4 97
2019-11-07 07:00:00 6.9 4 Sudoeste 27 Sudoeste 0.2 896.1 -1 96
2019-11-07 06:00:00 6.8 6 Sudoeste 17 Sur 0 896.4 -1.1 94
2019-11-07 05:00:00 6.6 3 Sudoeste 16 Sudoeste 0 896.6 -1.3 91
2019-11-07 04:00:00 6.7 5 Sudoeste 22 Sudoeste 0 897.1 -1.3 86
2019-11-07 03:00:00 7 11 Sudoeste 18 Sur 0 897.5 -1.2 82
2019-11-07 02:00:00 7 8 Sudoeste 21 Sudoeste 0 897.9 -1.4 83
2019-11-07 01:00:00 7.3 12 Sudoeste 21 Sudoeste 0 898.4 -1.1 80
2019-11-07 00:00:00 7 5 Sudoeste 16 Sudoeste 0 898.7 -1.1 77
2019-11-06 23:00:00 6.8 2 Norte 6 Sur 0 899.3 -0.9 76
2019-11-06 22:00:00 7.3 3 Sur 12 Sudoeste 0 899.5 -0.9 75
2019-11-06 21:00:00 7.7 5 Sudoeste 18 Sudoeste 0 899.8 -0.3 71
2019-11-06 20:00:00 8.1 4 Sudoeste 11 Sudoeste 0 900.2 0.1 66
2019-11-06 19:00:00 8.5 5 Sudoeste 14 Sudoeste 0 900.4 0.2 62
2019-11-06 18:00:00 9.1 5 Sudoeste 16 Oeste 0 900.1 -0.5 57
2019-11-06 17:00:00 11.1 4 Oeste 18 Noroeste 0 900.1 -1 53
2019-11-06 16:00:00 11.9 5 Oeste 26 Noroeste 0 900.2 -1.4 49
2019-11-06 15:00:00 12.4 7 Oeste 28 Noroeste 0 900.6 -1.6 50
2019-11-06 14:00:00 10.6 6 Oeste 27 Oeste 0 901.1 -1.5 57
2019-11-06 13:00:00 11.2 11 Noroeste 27 Noroeste 0 901.6 -0.9 55
2019-11-06 12:00:00 9.4 4 Oeste 22 Oeste 0 902.2 -0.3 67
2019-11-06 11:00:00 7.8 8 Oeste 20 Noroeste 0 902.6 0.7 71
2019-11-06 10:00:00 6.8 3 Oeste 16 Oeste 0 902.5 1.2 78
2019-11-06 09:00:00 4.2 3 Sudoeste 8 Noroeste 0 902.5 1.6 90
2019-11-06 08:00:00 2.5 -- -- -- -- -- 901.9 0.8 92
2019-11-06 07:00:00 3.5 2 Sudoeste 9 Sudoeste 0 901.3 0.5 89
2019-11-06 06:00:00 4.2 3 Oeste 15 Sudoeste 0 900.9 -0.1 87
2019-11-06 05:00:00 3.6 3 Sudoeste 11 Sudoeste 0 901.1 0.1 90
2019-11-06 04:00:00 4.3 5 Sur 15 Noroeste 0 900.8 -0.1 85
2019-11-06 03:00:00 2.9 0 Calma 5 Norte 0 901 0.4 91
2019-11-06 02:00:00 4 0 Calma 16 Sudoeste 0 901 0.6 87
2019-11-06 01:00:00 5.4 4 Oeste 20 Sudoeste 0 900.9 0.7 82
2019-11-06 00:00:00 4.8 3 Sudoeste 18 Sudoeste 0 900.6 0.9 83
2019-11-05 23:00:00 6.1 6 Oeste 26 Sudoeste 0 900.4 1.5 77
2019-11-05 22:00:00 6.5 3 Sur 26 Oeste 0 900.2 1.7 76
2019-11-05 21:00:00 7.5 8 Oeste 22 Noroeste 0 899.7 2.3 72
2019-11-05 20:00:00 7.3 6 Sudoeste 10 Sudoeste 0 898.9 1.6 77
2019-11-05 19:00:00 7.1 4 Sudoeste 17 Sudoeste 0 898.5 2.1 84
2019-11-05 18:00:00 7.3 9 Sudoeste 25 Noroeste 0 897.4 1.2 81
2019-11-05 17:00:00 7.6 4 Sudoeste 45 Oeste 1.6 897.3 1.4 81
2019-11-05 16:00:00 10.5 9 Oeste 37 Sudoeste 0 896.4 0.4 58
2019-11-05 15:00:00 10.4 13 Sudoeste 33 Sudoeste 0 896.2 -0.4 58
2019-11-05 14:00:00 10.5 13 Sudoeste 38 Sudoeste 0 895.9 -0.6 58
2019-11-05 13:00:00 10.8 17 Sudoeste 43 Sudoeste 0 896 -0.4 60
2019-11-05 12:00:00 8.7 14 Sudoeste 36 Sudoeste 0 896.6 1 66
2019-11-05 11:00:00 7.6 13 Sudoeste 32 Oeste 0 896.5 1.6 71
2019-11-05 10:00:00 6.9 14 Sudoeste 35 Sudoeste 0 896.4 1.7 73
2019-11-05 09:00:00 6.4 11 Sudoeste 27 Sudoeste 0 895.6 1.1 78
2019-11-05 08:00:00 5.5 10 Sudoeste 25 Sudoeste 0 894.9 0.7 81
2019-11-05 07:00:00 5.4 10 Sudoeste 22 Sudoeste 0 894.7 1 83
2019-11-05 06:00:00 5.9 8 Sudoeste 24 Sudoeste 0 894.5 0.6 77
2019-11-05 05:00:00 6.2 9 Sudoeste 31 Sudoeste 0 894.2 0.1 76
2019-11-05 04:00:00 6.5 12 Sudoeste 22 Sudoeste 0 893.7 -0.4 76
2019-11-05 03:00:00 6.1 5 Sudoeste 15 Sudoeste 0 893.9 0.1 81
2019-11-05 02:00:00 5.7 5 Oeste 21 Sudoeste 0 894.1 0.3 83
2019-11-05 01:00:00 7.1 7 Sudoeste 23 Sudoeste 0 894.1 0.5 79
2019-11-05 00:00:00 7.2 4 Oeste 26 Noroeste 0 893.8 0.7 82
2019-11-04 23:00:00 8.1 5 Oeste 19 Oeste 0.2 893.8 0.5 84
2019-11-04 22:00:00 8.9 2 Oeste 13 Sur 0.4 893.6 0.3 91
2019-11-04 21:00:00 9.5 5 Sudoeste 23 Sudoeste 0.2 893.1 0.1 85
2019-11-04 20:00:00 10.6 11 Sudoeste 35 Sudoeste 1.6 893.3 0.3 85
2019-11-04 19:00:00 10.8 8 Sudoeste 37 Sur 1.8 893.3 -0.4 92
2019-11-04 18:00:00 11.3 13 Sudoeste 45 Sudoeste 0.6 893 -1.2 87
2019-11-04 17:00:00 12.5 18 Sudoeste 41 Sudoeste 0 893 -1.6 76
2019-11-04 16:00:00 12.9 23 Sudoeste 52 Sur 0 893.7 -1.7 74
2019-11-04 15:00:00 13 20 Sudoeste 44 Sudoeste 0 894.2 -2.3 73
2019-11-04 14:00:00 12.8 21 Sudoeste 45 Sur 0 894.6 -2.3 72
2019-11-04 13:00:00 12.7 15 Sudoeste 40 Sudoeste 0 895.4 -2 75
2019-11-04 12:00:00 11.9 18 Sur 37 Sur 0 896.5 -0.9 76
2019-11-04 11:00:00 11.2 17 Sudoeste 39 Sur 0 896.9 -0.2 82
2019-11-04 10:00:00 10.8 13 Sudoeste 43 Sudoeste 0 897.4 0.7 84
2019-11-04 09:00:00 10.8 18 Sudoeste 48 Sur 0 897.4 0.2 84
2019-11-04 08:00:00 10.3 17 Sudoeste 44 Sudoeste 0 897.1 -0.1 87
2019-11-04 07:00:00 10.3 17 Sudoeste 44 Sudoeste 0 896.7 -0.5 87
2019-11-04 06:00:00 10.1 17 Sudoeste 37 Oeste 0 897.2 -0.2 89
2019-11-04 05:00:00 10 15 Sudoeste 36 Sudoeste 0 897.2 -0.7 91
2019-11-04 04:00:00 10.4 14 Sudoeste 34 Sudoeste 0 897.2 -0.8 85
2019-11-04 03:00:00 10.9 14 Sudoeste 39 Sudoeste 0 897.4 -0.8 81
2019-11-04 02:00:00 11.1 20 Sudoeste 37 Sudoeste 0 897.9 -0.5 77
2019-11-04 01:00:00 11.2 14 Sudoeste 33 Sudoeste 0 898 -0.4 75
2019-11-04 00:00:00 10.7 12 Sudoeste 26 Sudoeste 0 898.2 -0.1 73
2019-11-03 23:00:00 10 10 Sudoeste 22 Sudoeste 0 898.4 0.1 68
2019-11-03 22:00:00 9.9 9 Sudoeste 20 Sur 0 898.4 1.1 65
2019-11-03 21:00:00 9.3 7 Sudoeste 13 Sudoeste 0 898.3 1.7 66
2019-11-03 20:00:00 8.7 0 Calma 24 Oeste 0 898.3 1.9 70
2019-11-03 19:00:00 10.1 9 Sudoeste 31 Oeste 0 897.3 1.8 62
2019-11-03 18:00:00 11.2 7 Sudoeste 23 Noroeste 0 896.6 1.5 57
2019-11-03 17:00:00 12.6 8 Oeste 28 Sudoeste 0 896.4 1.8 50
2019-11-03 16:00:00 14 9 Oeste 28 Sudoeste 0 895.5 1 44
2019-11-03 15:00:00 12.9 9 Oeste 45 Noroeste 0 895.1 1 48
2019-11-03 14:00:00 14 11 Oeste 44 Noroeste 0 894.6 1 45
2019-11-03 13:00:00 13 16 Oeste 53 Norte 0 894.5 1.9 50
2019-11-03 12:00:00 12 17 Oeste 47 Noroeste 0 894.1 2.5 48
2019-11-03 11:00:00 11.1 14 Oeste 48 Oeste 0 893.6 4.1 52
2019-11-03 10:00:00 10.1 14 Oeste 53 Noroeste 0 892.6 4.9 68
2019-11-03 09:00:00 9.8 8 Oeste 43 Sudoeste 1.2 891.6 3.7 77
2019-11-03 08:00:00 10.2 11 Oeste 41 Sudoeste 2.6 889.5 1.4 92
2019-11-03 07:00:00 10 12 Sudoeste 40 Sudoeste 0 887.7 -1.1 92
2019-11-03 06:00:00 10.2 17 Sudoeste 43 Sudoeste 0 887.9 -2.1 91
2019-11-03 05:00:00 10 17 Sudoeste 40 Sudoeste 0 888.1 -2.1 90
2019-11-03 04:00:00 10.1 12 Sudoeste 36 Sur 0 888.8 -2 87
2019-11-03 03:00:00 10.2 12 Sudoeste 41 Sudoeste 0 890 -1.6 88
2019-11-03 02:00:00 10.8 11 Sudoeste 38 Sudoeste 0 890.2 -1.9 84
2019-11-03 01:00:00 11.3 14 Sudoeste 37 Sudoeste 0.2 890.8 -1.6 87
2019-11-03 00:00:00 11.7 12 Sudoeste 31 Sudoeste 0 891.6 -1.1 88
2019-11-02 23:00:00 12 11 Sudoeste 28 Oeste 0 892.1 -1.2 86
2019-11-02 22:00:00 12.3 10 Sudoeste 27 Oeste 0 892.4 -1.4 79
2019-11-02 21:00:00 13 12 Sudoeste 32 Sudoeste 0 892.7 -1.9 86
2019-11-02 20:00:00 13.3 14 Sudoeste 31 Sudoeste 0 893.3 -1.3 85
2019-11-02 19:00:00 13.5 13 Sudoeste 28 Sur 0 893.8 -1.2 84
2019-11-02 18:00:00 14 10 Sudoeste 31 Sudoeste 0 894.6 -0.3 83
2019-11-02 17:00:00 14.5 5 Sudoeste 23 Sudoeste 0 894.6 -1.3 84
2019-11-02 16:00:00 15 10 Sudoeste 29 Sudoeste 0 895 -1.9 79
2019-11-02 15:00:00 14.2 9 Sudoeste 27 Sur 1 894.9 -2.9 88
2019-11-02 14:00:00 14.9 10 Sudoeste 26 Sudoeste 0 895.9 -2.1 82
2019-11-02 13:00:00 14.1 9 Sudoeste 33 Sur 0 896.9 -1.4 85
2019-11-02 12:00:00 13.6 16 Sudoeste 33 Sudoeste 2.6 897.8 -0.8 88
2019-11-02 11:00:00 13.7 14 Sudoeste 29 Sudoeste 0 898 -0.6 85
2019-11-02 10:00:00 13.3 10 Sudoeste 33 Sudoeste 0 898.3 -0.4 89
2019-11-02 09:00:00 12.7 12 Sudoeste 24 Sudoeste 0 898.6 -0.5 91
2019-11-02 08:00:00 12.5 10 Sudoeste 20 Sur 0 898.6 -1 92
2019-11-02 07:00:00 12.7 11 Sudoeste 26 Oeste 0 898.7 -1.3 91
2019-11-02 06:00:00 12.8 10 Sudoeste 26 Oeste 0 899.1 -1.6 91
2019-11-02 05:00:00 12.9 11 Sudoeste 29 Sudoeste 0 899.6 -1.5 90
2019-11-02 04:00:00 12.9 8 Sudoeste 26 Sudoeste 0 900 -1.8 91
2019-11-02 03:00:00 13 8 Sudoeste 24 Sudoeste 0 900.7 -1.5 92
2019-11-02 02:00:00 13 6 Sudoeste 21 Sudoeste 0 901.1 -1.6 92
2019-11-02 01:00:00 13 4 Sudoeste 16 Sudoeste 0 901.8 -1 91
2019-11-02 00:00:00 13.5 5 Sur 22 Oeste 0 902.2 -0.7 91
2019-11-01 23:00:00 14.1 10 Sudoeste 34 Sudoeste 0 902.7 -0.1 91
2019-11-01 22:00:00 14.1 7 Sudoeste 24 Sudoeste 0 902.8 -0.4 91
2019-11-01 21:00:00 14.2 10 Sudoeste 26 Sudoeste 0 902.9 -0.4 90
2019-11-01 20:00:00 14.4 8 Sudoeste 26 Sudoeste 0.4 902.8 -0.8 92
2019-11-01 19:00:00 14.8 10 Sudoeste 28 Sudoeste 0.2 903.2 -0.8 91
2019-11-01 18:00:00 15.2 8 Sudoeste 23 Sur 0.2 903.3 -1.2 91
2019-11-01 17:00:00 15.4 7 Sudoeste 21 Sur 0.2 903.6 -1.7 92
2019-11-01 16:00:00 15.8 8 Sudoeste 23 Sudoeste 0.2 904 -2 90
2019-11-01 15:00:00 15.8 10 Sudoeste 27 Sudoeste 0.2 904.5 -2.2 88
2019-11-01 14:00:00 16 13 Sudoeste 30 Sudoeste 0.2 905.3 -2.1 84
2019-11-01 13:00:00 17.6 10 Sudoeste 29 Sudoeste 0 906 -1.6 70
2019-11-01 12:00:00 17.9 12 Sudoeste 25 Sudoeste 0 906.7 -1 69
2019-11-01 11:00:00 16 8 Sudoeste 24 Sudoeste 0 907.4 -0.2 79
2019-11-01 10:00:00 13.9 5 Sudoeste 15 Oeste 0 907.6 -0.1 91
2019-11-01 09:00:00 13.2 3 Sudoeste 12 Sudoeste 0 907.7 -0.2 94
2019-11-01 08:00:00 12.4 3 Sudeste 6 Sudoeste 0 907.6 -0.3 95
2019-11-01 07:00:00 11.9 2 Sur 5 Sur 0 907.7 -0.5 94
2019-11-01 06:00:00 11.6 3 Sudoeste 7 Sur 0 907.9 -0.8 94
2019-11-01 05:00:00 11.1 4 Sudoeste 7 Sudoeste 0 907.9 -1.1 93
2019-11-01 04:00:00 11.3 3 Sudoeste 8 Sur 0 908.2 -0.9 92
2019-11-01 03:00:00 11.5 2 Nordeste 4 Noroeste 0 908.7 -0.9 93
2019-11-01 02:00:00 11.1 2 Noroeste 4 Oeste 0 909 -0.7 91
2019-11-01 01:00:00 10.4 3 Sudoeste 5 Sur 0 909.1 -0.7 92
2019-11-01 00:00:00 10 0 Calma 4 Noroeste 0 909.6 -0.3 91
2019-10-31 23:00:00 10.1 0 Calma 4 Este 0 909.7 -0.1 90
2019-10-31 22:00:00 11.2 0 Calma 5 Este 0 909.8 -0.1 84
2019-10-31 21:00:00 12.9 0 Calma 10 Sudoeste 0 909.9 0.4 82
2019-10-31 20:00:00 14 2 Oeste 6 Norte 0 909.8 0.4 78
2019-10-31 19:00:00 14.8 0 Calma 8 Sudoeste 0 909.9 0.6 74
2019-10-31 18:00:00 15.4 2 Oeste 17 Oeste 0 909.5 0 70
2019-10-31 17:00:00 16.3 5 Oeste 23 Sudoeste 0 909.4 -0.5 64
2019-10-31 16:00:00 16.9 5 Oeste 21 Sudoeste 0 909.3 -0.7 61
2019-10-31 15:00:00 16.8 8 Oeste 24 Oeste 0 909.5 -1 60
2019-10-31 14:00:00 17 6 Oeste 33 Noroeste 0 909.9 -0.7 61
2019-10-31 13:00:00 16.2 9 Noroeste 27 Noroeste 0 910 -0.5 65
2019-10-31 12:00:00 16.6 9 Oeste 24 Noroeste 0 910.5 0.8 62
2019-10-31 11:00:00 15.7 5 Noroeste 23 Noroeste 0 910.6 1.3 69
2019-10-31 10:00:00 14.4 5 Oeste 16 Norte 0.2 910.5 1.5 78
2019-10-31 09:00:00 12 3 Sudoeste 10 Sudoeste 0 909.7 0.7 93
2019-10-31 08:00:00 11.1 2 Noroeste 8 Norte 0 909.3 0.5 94
2019-10-31 07:00:00 11.4 3 Sudoeste 13 Sudoeste 0 909 0.3 94
2019-10-31 06:00:00 11.7 3 Sudoeste 10 Sur 0 909 0.1 94
2019-10-31 05:00:00 11.6 3 Sudoeste 6 Sudoeste 0 908.8 -0.3 95
2019-10-31 04:00:00 11.6 0 Calma 8 Sudoeste 0 908.7 -0.7 95
2019-10-31 03:00:00 11.3 5 Sur 8 Sur 0.4 908.9 -0.6 95
2019-10-31 02:00:00 10.7 0 Calma 5 Norte 0 909.1 -0.5 94
2019-10-31 01:00:00 10.4 0 Calma 6 Norte 0 909.4 -0.2 94
2019-10-31 00:00:00 10.6 2 Sudoeste 4 Nordeste 0 909.5 0.1 92
2019-10-30 23:00:00 11.4 0 Calma 4 Este 0 909.6 0.2 90
2019-10-30 22:00:00 12.2 0 Calma 4 Norte 0 909.6 0.4 90
2019-10-30 21:00:00 12.7 0 Calma 8 Sur 0 909.4 0.8 89
2019-10-30 20:00:00 13.2 4 Sudoeste 11 Sur 0 909.4 0.8 85
2019-10-30 19:00:00 13.7 5 Sudoeste 16 Sudoeste 0 909.2 0.9 81
2019-10-30 18:00:00 14.4 3 Sudoeste 22 Sudoeste 0 908.6 0.1 76
2019-10-30 17:00:00 15.3 8 Sudoeste 22 Oeste 0 908.6 0.1 71
2019-10-30 16:00:00 16.2 8 Sudoeste 21 Sudoeste 0 908.3 -0.6 67
2019-10-30 15:00:00 16.8 9 Sudoeste 24 Sudoeste 0 908.5 -1.1 64
2019-10-30 14:00:00 17.3 11 Sudoeste 21 Sudoeste 0 908.5 -1.3 62
2019-10-30 13:00:00 16.7 11 Sudoeste 21 Sur 0 908.9 -0.9 66
2019-10-30 12:00:00 15.8 9 Sudoeste 18 Sudoeste 0 909.6 0.1 69
2019-10-30 11:00:00 13.5 5 Sudoeste 9 Sudoeste 0 909.8 0.8 81
2019-10-30 10:00:00 10.2 2 Este 5 Este 0 909.8 1.2 94
2019-10-30 09:00:00 8.3 0 Calma 12 Sudoeste 0 909.5 0.9 97
2019-10-30 08:00:00 7 0 Calma 6 Norte 0 909 0.8 97
2019-10-30 07:00:00 6.7 0 Calma 8 Sudoeste 0 908.6 0.3 98
2019-10-30 06:00:00 6.4 3 Nordeste 9 Nordeste 0 908.6 -0.1 98
2019-10-30 05:00:00 6.6 3 Nordeste 8 Nordeste 0 908.2 -0.5 97
2019-10-30 04:00:00 6.7 0 Calma 7 Nordeste 0 908.3 -0.5 95
2019-10-30 03:00:00 7 2 Este -- -- -- 908.7 0.4 94
2019-10-30 02:00:00 7.1 3 Nordeste 5 Nordeste 0 908.7 0.3 94
2019-10-30 01:00:00 8.1 0 Calma 3 Nordeste 0 908.8 0.7 91
2019-10-30 00:00:00 9.6 0 Calma 7 Norte 0 908.3 0.6 90
2019-10-29 23:00:00 9.8 4 Norte 7 Norte 0 908.4 0.9 91
2019-10-29 22:00:00 10.1 3 Norte 5 Este 0 908.1 1.3 86
2019-10-29 21:00:00 12.6 2 Sudeste 6 Sudoeste 0 907.7 1.6 81
2019-10-29 20:00:00 14.4 3 Sudoeste 9 Sudoeste 0 907.5 1.9 78
2019-10-29 19:00:00 14.8 7 Sudoeste 15 Sur 0 906.8 1.7 76
2019-10-29 18:00:00 16.5 5 Sudoeste 16 Sudoeste 0 906.1 1.2 70
2019-10-29 17:00:00 17.9 5 Norte 18 Norte 0 905.6 0.2 62
2019-10-29 16:00:00 20.3 4 Oeste 15 Sudoeste 0 905.1 -0.6 52
2019-10-29 15:00:00 20 8 Sudoeste 21 Sudoeste 0 904.9 -1.2 48
2019-10-29 14:00:00 19.8 11 Sur 21 Sudoeste 0 905.4 -1 50
2019-10-29 13:00:00 18.7 6 Sudoeste 18 Sur 0 905.7 -0.7 58
2019-10-29 12:00:00 17.1 3 Sudeste 11 Sur 0 906.1 -0.1 67
2019-10-29 11:00:00 13 0 Calma 4 Este 0 906.4 1 85
2019-10-29 10:00:00 8.7 2 Nordeste 5 Sudoeste 0 906.4 1.4 94
2019-10-29 09:00:00 5.6 2 Sudoeste 5 Nordeste 0 906.2 1.6 96
2019-10-29 08:00:00 4.3 4 Nordeste 10 Norte 0 905.4 1 97
2019-10-29 07:00:00 4.3 2 Este 6 Nordeste 0 905 0.5 96
2019-10-29 06:00:00 4.5 4 Nordeste 8 Nordeste 0 904.6 -0.1 96
2019-10-29 05:00:00 5.4 3 Nordeste 9 Norte 0 904.4 -0.5 95
2019-10-29 04:00:00 5.5 3 Norte 5 Nordeste 0 904.5 -0.6 94
2019-10-29 03:00:00 6.1 3 Norte 6 Nordeste 0 904.7 -0.4 94
2019-10-29 02:00:00 6.4 4 Nordeste 5 Nordeste 0 904.9 -0.2 93
2019-10-29 01:00:00 7.1 4 Nordeste 6 Norte 0 905.1 0.1 92
2019-10-29 00:00:00 7.5 3 Nordeste 6 Norte 0 905.1 0.4 91
2019-10-28 23:00:00 8.3 4 Norte 6 Nordeste 0 905.1 0.4 89
2019-10-28 22:00:00 9.1 3 Nordeste 5 Norte 0 905 0.4 85
2019-10-28 21:00:00 10.4 2 Nordeste 6 Norte 0 904.7 0.5 80
2019-10-28 20:00:00 12.3 4 Norte 8 Sudoeste 0 904.7 0.7 74
2019-10-28 19:00:00 15.1 5 Sur 11 Sudoeste 0 904.6 0.4 63
2019-10-28 18:00:00 17.5 6 Sudoeste 19 Oeste 0 904.2 0 53
2019-10-28 17:00:00 19.8 6 Sudoeste 22 Sudoeste 0 904 -0.7 45
2019-10-28 16:00:00 20.8 9 Sudoeste 23 Sudoeste 0 904.2 -1 42
2019-10-28 15:00:00 21.5 8 Sudoeste 22 Sudoeste 0 904.2 -1.6 41
2019-10-28 14:00:00 20.7 12 Sur 21 Sur 0 904.7 -1.5 44
2019-10-28 13:00:00 19.2 11 Sudoeste 19 Sudoeste 0 905.2 -1.2 47
2019-10-28 12:00:00 17 7 Sudoeste 15 Sudoeste 0 905.8 -0.2 60
2019-10-28 11:00:00 12.4 2 Nordeste 7 Nordeste 0 906.2 0.2 82
2019-10-28 10:00:00 10.7 0 Calma 5 Nordeste 0 906.4 1.1 86
2019-10-28 09:00:00 8.6 2 Este 5 Norte 0 906 0.4 92
2019-10-28 08:00:00 7.8 3 Nordeste 6 Sudoeste 0 906 0 93
2019-10-28 07:00:00 7.4 2 Nordeste 6 Nordeste 0 905.3 -0.8 93
2019-10-28 06:00:00 7.2 4 Nordeste 6 Nordeste 0 905.6 -0.8 93
2019-10-28 05:00:00 7 0 Calma 7 Nordeste 0 906 -0.9 93
2019-10-28 04:00:00 7.4 3 Nordeste 8 Norte 0 906.1 -1.1 92
2019-10-28 03:00:00 7.2 2 Norte 5 Nordeste 0 906.4 -0.8 92
2019-10-28 02:00:00 6.9 0 Calma 5 Nordeste 0 906.9 -0.4 92
2019-10-28 01:00:00 6.9 2 Nordeste 4 Nordeste 0 907.2 -0.1 91
2019-10-28 00:00:00 7.9 0 Calma 6 Norte 0 907.2 -0.1 88
2019-10-27 23:00:00 9 0 Calma 6 Norte 0 907.3 -0.1 86
2019-10-27 22:00:00 10 3 Nordeste 5 Norte 0 907.3 0.5 83
2019-10-27 21:00:00 11.3 0 Calma 4 Nordeste 0 907.3 0.6 79
2019-10-27 20:00:00 12.5 0 Calma 3 Nordeste 0 907.4 0.7 74
2019-10-27 19:00:00 14.3 0 Calma 4 Sur 0 906.8 0 66
2019-10-27 18:00:00 16.7 5 Sur 13 Oeste 0 906.7 -0.2 54
2019-10-27 17:00:00 18.4 5 Sudoeste 16 Sur 0 906.7 -0.7 48
2019-10-27 16:00:00 19.3 6 Sudoeste 18 Sudoeste 0 906.8 -1.2 44
2019-10-27 15:00:00 21.3 7 Sudoeste 18 Sur 0 906.9 -1.5 37
2019-10-27 14:00:00 19.2 11 Sudoeste 21 Sudoeste 0 907.4 -1.6 48
2019-10-27 13:00:00 18.6 8 Sudoeste 18 Sudoeste 0 908 -1.2 49
2019-10-27 12:00:00 17.6 7 Sudoeste 17 Sur 0 908.4 -0.5 54
2019-10-27 11:00:00 12.4 4 Sur 6 Sur 0 909 0.3 79
2019-10-27 10:00:00 8.2 2 Nordeste 6 Nordeste 0 909.2 1.2 90
2019-10-27 09:00:00 4.8 2 Este 9 Nordeste 0 908.9 0.5 97
2019-10-27 08:00:00 2.2 3 Nordeste 9 Nordeste 0 908.7 0.4 97
2019-10-27 07:00:00 1.9 4 Nordeste 9 Norte 0 908 -0.1 97
2019-10-27 06:00:00 1.8 3 Nordeste 6 Nordeste 0 908.4 -0.1 97
2019-10-27 05:00:00 2.1 4 Nordeste 9 Norte 0 908.3 -0.4 97
2019-10-27 04:00:00 2.1 4 Nordeste 7 Nordeste 0 908.1 -0.8 96
2019-10-27 03:00:00 2.5 3 Nordeste 7 Nordeste 0 908.5 -0.6 96
2019-10-27 02:00:00 3 5 Nordeste 8 Nordeste 0 908.7 -0.4 96
2019-10-27 01:00:00 4.4 2 Nordeste 8 Nordeste 0 909.1 0.4 94
2019-10-27 00:00:00 5.1 5 Nordeste 8 Nordeste 0 909.1 0.8 92
2019-10-26 23:00:00 6.3 3 Nordeste 8 Norte 0 909 1.1 90
2019-10-26 22:00:00 7.6 2 Este 6 Nordeste 0 908.7 1.3 85
2019-10-26 21:00:00 9.4 3 Nordeste 7 Nordeste 0 908.3 1.2 78
2019-10-26 20:00:00 12.6 0 Calma 4 Sur 0 907.9 0.8 67
2019-10-26 19:00:00 17.1 3 Sur 16 Sudoeste 0 907.4 -0.1 51
2019-10-26 18:00:00 19.6 7 Sudoeste 19 Sur 0 907.1 -0.6 42
2019-10-26 17:00:00 20.6 9 Sudoeste 21 Sudoeste 0 907.1 -1.2 39
2019-10-26 16:00:00 20.6 12 Sudoeste 23 Sudoeste 0 907.5 -1.6 37
2019-10-26 15:00:00 20.4 9 Sudoeste 26 Sur 0 907.7 -1.6 35
2019-10-26 14:00:00 19.2 13 Sur 23 Sudoeste 0 908.3 -0.9 46
2019-10-26 13:00:00 17.7 10 Sudoeste 18 Sudoeste 0 909.1 0 52
2019-10-26 12:00:00 14.3 7 Sur 12 Sudoeste 0 909.3 0.6 72
2019-10-26 11:00:00 8.1 2 Nordeste 4 Nordeste 0 909.2 0.7 98
2019-10-26 10:00:00 3.9 3 Nordeste 8 Nordeste 0 909.1 0.6 99
2019-10-26 09:00:00 1.3 4 Nordeste 8 Nordeste 0 908.7 0.2 100
2019-10-26 08:00:00 1.5 3 Nordeste 7 Nordeste 0 908.5 -0.1 99
2019-10-26 07:00:00 1.5 4 Nordeste 7 Nordeste 0 908.5 -0.2 99
2019-10-26 06:00:00 2.1 3 Nordeste 7 Norte 0 908.5 -0.6 99
2019-10-26 05:00:00 2.4 4 Nordeste 8 Nordeste 0 908.6 -0.8 98
2019-10-26 04:00:00 2.6 4 Nordeste 7 Nordeste 0 908.7 -0.8 96
2019-10-26 03:00:00 3.4 4 Norte 7 Norte 0 909.1 -0.6 96
2019-10-26 02:00:00 4.2 3 Norte 6 Nordeste 0 909.4 -0.2 96
2019-10-26 01:00:00 4.9 3 Este 6 Norte 0 909.5 0.1 94
2019-10-26 00:00:00 5.9 3 Nordeste 9 Norte 0 909.7 0.4 94
2019-10-25 23:00:00 6.7 2 Nordeste 6 Este 0 909.6 0.6 91
2019-10-25 22:00:00 8.3 0 Calma 5 Norte 0 909.4 0.8 86
2019-10-25 21:00:00 10.3 2 Este 6 Norte 0 909.3 0.7 81
2019-10-25 20:00:00 13.3 4 Sudoeste 19 Oeste 0 909 0.6 70
2019-10-25 19:00:00 16.4 5 Sudoeste 17 Sudoeste 0 908.6 0 60
2019-10-25 18:00:00 19.1 8 Sudoeste 19 Sur 0 908.6 -0.5 51
2019-10-25 17:00:00 20.1 8 Sudoeste 15 Sur 0 908.4 -1.6 46
2019-10-25 16:00:00 20 8 Sur 18 Sur 0 908.6 -2.1 49
2019-10-25 15:00:00 19 10 Sudoeste 17 Sudoeste 0 909.1 -1.8 50
2019-10-25 14:00:00 18.3 7 Sudoeste 17 Sudoeste 0 910 -0.9 54
2019-10-25 13:00:00 16 8 Sur 16 Sur 0 910.7 -0.3 66
2019-10-25 12:00:00 11.5 2 Oeste 7 Noroeste 0 910.9 0.3 81
2019-10-25 11:00:00 7.9 2 Este 10 Nordeste 0 910.9 0.4 98
2019-10-25 10:00:00 5.4 5 Nordeste 10 Nordeste 0 911 0.5 98
2019-10-25 09:00:00 2.9 4 Norte 7 Norte 0 910.6 0.4 98
2019-10-25 08:00:00 2.9 4 Nordeste 6 Nordeste 0 910.5 0.4 96
2019-10-25 07:00:00 3.5 2 Nordeste 4 Este 0 910.5 0.2 96
2019-10-25 06:00:00 4 0 Calma 4 Este 0 910.2 -0.1 94
2019-10-25 05:00:00 4.9 2 Sudoeste 5 Sudoeste 0 910.1 -0.3 93
2019-10-25 04:00:00 6.1 0 Calma 8 Sudoeste 0 910.3 0 91
2019-10-25 03:00:00 7.9 3 Sudoeste 8 Sudoeste 0 910.3 0.2 88
2019-10-25 02:00:00 8.7 4 Sudoeste 15 Sudoeste 0 910.4 0.7 87
2019-10-25 01:00:00 9.1 2 Oeste 9 Sur 0 910.3 1.2 87
2019-10-25 00:00:00 9.7 4 Sudoeste 9 Sudoeste 0 910.1 1.6 84
2019-10-24 23:00:00 10.7 3 Oeste 11 Norte 0 909.7 2.1 80
2019-10-24 22:00:00 10.9 2 Noroeste 13 Sudoeste 0 909.1 1.9 79
2019-10-24 21:00:00 11.2 5 Sur 13 Sudoeste 0 908.5 2 75
2019-10-24 20:00:00 11.4 8 Noroeste 18 Norte 0 907.6 1.6 73
2019-10-24 19:00:00 12.5 2 Oeste 17 Norte 0 907.2 1.9 70
2019-10-24 18:00:00 13.2 6 Noroeste 17 Oeste 0 906.5 1.5 68
2019-10-24 17:00:00 14 5 Oeste 19 Sudoeste 0 906 0.5 63
2019-10-24 16:00:00 14.8 5 Oeste 21 Oeste 0 905.3 0 54
2019-10-24 15:00:00 13.4 8 Sur 20 Sur 0 905 0.1 55
2019-10-24 14:00:00 11.8 5 Oeste 23 Sudoeste 0 905.5 1.1 59
2019-10-24 13:00:00 11.4 4 Sudoeste 25 Norte 0 905.3 1.8 61
2019-10-24 12:00:00 9.6 10 Noroeste 25 Noroeste 0 904.9 2.1 64
2019-10-24 11:00:00 8.2 9 Noroeste 27 Noroeste 0 904.4 2.8 73
2019-10-24 10:00:00 6.7 5 Oeste 16 Sudoeste 0 903.5 2.5 83
2019-10-24 09:00:00 6.1 4 Oeste 15 Oeste 0 902.8 2.5 82
2019-10-24 08:00:00 6 5 Sur 22 Noroeste 0 901.6 2.1 83
2019-10-24 07:00:00 6.1 3 Nordeste 16 Noroeste 0 901 2 84
2019-10-24 06:00:00 7 5 Oeste 16 Noroeste 0 900.3 1.7 83
2019-10-24 05:00:00 7.2 3 Sudoeste 14 Sur 0 899.5 1.2 92
2019-10-24 04:00:00 7.2 8 Sudoeste 13 Sur 0 899 0.7 92
2019-10-24 03:00:00 7.1 5 Sudoeste 15 Sudoeste 0 898.6 0.9 93
2019-10-24 02:00:00 7 4 Sur 14 Sudoeste 0 898.3 0.9 94
2019-10-24 01:00:00 6.9 4 Sudoeste 13 Sudoeste 0 898.3 1.5 93
2019-10-24 00:00:00 6.8 6 Sur 14 Sudoeste 0 897.7 1.4 92
2019-10-23 23:00:00 6.8 8 Sur 16 Sur 0 897.4 1.5 90
2019-10-23 22:00:00 7 5 Sudoeste 14 Sudoeste 0 896.8 1.8 90
2019-10-23 21:00:00 6.8 6 Sur 15 Sur 0 896.3 1.8 88
2019-10-23 20:00:00 7.4 6 Sudoeste 18 Sudoeste 0 895.9 1.6 85
2019-10-23 19:00:00 7.8 6 Sudoeste 23 Sudoeste 0 895 0.9 85
2019-10-23 18:00:00 8.2 14 Sudoeste 26 Sudoeste 0 894.5 0.2 77
2019-10-23 17:00:00 8.7 13 Sur 24 Sur 0 894.3 0.3 75
2019-10-23 16:00:00 8.7 7 Sudoeste 19 Sur 0 894.1 0.4 76
2019-10-23 15:00:00 8.3 5 Sur 17 Sudoeste 0 894.3 0.3 76
2019-10-23 14:00:00 7.5 8 Sur 22 Sur 0 894 -0.1 81
2019-10-23 13:00:00 8.1 9 Sur 21 Sudoeste 0 893.7 0 82
2019-10-23 12:00:00 7.2 9 Sur 18 Sur 0 894 1.2 88
2019-10-23 11:00:00 6 6 Sudoeste 18 Sudoeste 0 894.1 1.7 92
2019-10-23 10:00:00 5.7 11 Sur 18 Sudoeste 0.6 893.7 1.4 95
2019-10-23 09:00:00 5.6 0 Calma 4 Norte 0 892.8 0.5 97
2019-10-23 08:00:00 5.4 2 Sudoeste 9 Sur 0 892.4 0.2 96
2019-10-23 07:00:00 5.7 2 Sur 12 Sudoeste 0 892.3 -0.6 96
2019-10-23 06:00:00 5.7 4 Sudoeste 6 Sudoeste 0.2 892.3 -0.5 96
2019-10-23 05:00:00 5.8 2 Sudoeste 9 Sudoeste 2.2 892.2 -0.6 96
2019-10-23 04:00:00 5.9 3 Sudoeste 11 Sudoeste 3.4 892.9 -1.1 95
2019-10-23 03:00:00 5.9 3 Sur 18 Norte 1.4 892.8 -2.1 95
2019-10-23 02:00:00 6 5 Noroeste 17 Noroeste 0 892.8 -2.3 94
2019-10-23 01:00:00 6.2 3 Norte 8 Noroeste 0 894 -1.8 94
2019-10-23 00:00:00 6.4 2 Nordeste 9 Nordeste 0 894.9 -0.2 94
2019-10-22 23:00:00 6.4 0 Calma 14 Noroeste 0 895.1 -0.4 92
2019-10-22 22:00:00 6.4 0 Calma 8 Este 0 895.8 0.4 93
2019-10-22 21:00:00 6.4 0 Calma 12 Norte 0 895.1 -1.3 92
2019-10-22 20:00:00 6.3 4 Norte 17 Nordeste 0 895.5 -0.9 91
2019-10-22 19:00:00 6.7 6 Nordeste 23 Norte 0.2 895.4 -1.9 89
2019-10-22 18:00:00 6.8 8 Nordeste 22 Nordeste 0 896.4 -2 90
2019-10-22 17:00:00 6.6 10 Nordeste 28 Nordeste 0.8 896.4 -3.4 91
2019-10-22 16:00:00 6.7 12 Nordeste 25 Nordeste 0.4 897.3 -3.5 89
2019-10-22 15:00:00 6.6 9 Nordeste 27 Nordeste 0.8 898.4 -3.1 91
2019-10-22 14:00:00 6.4 9 Nordeste 28 Nordeste 2.8 899.8 -1.8 91
2019-10-22 13:00:00 6.6 9 Nordeste 23 Nordeste 1 900.8 -0.7 92
2019-10-22 12:00:00 6.9 9 Nordeste 24 Nordeste 0.4 901.5 -0.4 90
2019-10-22 11:00:00 7 8 Nordeste 22 Nordeste 0 901.6 -0.1 84
2019-10-22 10:00:00 6.7 5 Nordeste 13 Nordeste 0 901.5 -0.2 86
2019-10-22 09:00:00 6 4 Nordeste 17 Nordeste 0 901.9 -0.6 88
2019-10-22 08:00:00 5.8 6 Nordeste 16 Nordeste 0 901.7 -1.2 87
2019-10-22 07:00:00 5.2 8 Nordeste 15 Nordeste 0 901.7 -1.6 89
2019-10-22 06:00:00 5.1 4 Nordeste 10 Nordeste 0 902.5 -1.4 90
2019-10-22 05:00:00 5 5 Nordeste 13 Nordeste 0 902.9 -1.3 90
2019-10-22 04:00:00 4.6 5 Nordeste 12 Nordeste 0 903.3 -1 92
2019-10-22 03:00:00 3.3 5 Nordeste 12 Nordeste 0 903.9 -0.5 96
2019-10-22 02:00:00 2.5 3 Nordeste 9 Nordeste 0 904.2 -0.5 93
2019-10-22 01:00:00 3.8 4 Nordeste 9 Nordeste 0 904.3 -0.4 91
2019-10-22 00:00:00 4.2 4 Nordeste 8 Nordeste 0 904.4 0 90
2019-10-21 23:00:00 4.3 3 Nordeste 7 Este 0 904.7 0.7 88
2019-10-21 22:00:00 5.5 4 Nordeste 7 Nordeste 0 904.7 1.4 84
2019-10-21 21:00:00 5.9 3 Nordeste 7 Este 0 904.4 1.3 81
2019-10-21 20:00:00 7.7 4 Nordeste 10 Nordeste 0 904 0.9 75
2019-10-21 19:00:00 10.1 5 Este 15 Nordeste 0 903.3 0 62
2019-10-21 18:00:00 11.2 7 Nordeste 17 Nordeste 0 903.1 -0.5 54
2019-10-21 17:00:00 11.2 8 Nordeste 18 Nordeste 0 903.1 -0.8 52
2019-10-21 16:00:00 10.5 6 Este 15 Nordeste 0 903.3 -1 57
2019-10-21 15:00:00 10.6 6 Este 17 Nordeste 0 903.6 -0.7 59
2019-10-21 14:00:00 10.7 8 Nordeste 18 Nordeste 0 903.9 -0.5 56
2019-10-21 13:00:00 9.4 2 Este 9 Nordeste 0 904.3 0 67
2019-10-21 12:00:00 7.6 4 Norte 12 Noroeste 0.2 904.3 0.5 77
2019-10-21 11:00:00 6.8 3 Este 8 Este 0 904.4 1.1 92
2019-10-21 10:00:00 3.8 2 Nordeste 5 Este 0 904.3 1.1 99
2019-10-21 09:00:00 1.7 0 Calma 3 Nordeste 0 903.8 0.9 99
2019-10-21 08:00:00 1.2 0 Calma 6 Noroeste 0 903.3 0.6 99
2019-10-21 07:00:00 0.8 0 Calma 3 Norte 0 903.2 0.7 98
2019-10-21 06:00:00 0.3 0 Calma 3 Norte 0 902.9 0.4 98
2019-10-21 05:00:00 0.6 0 Calma 5 Este 0 902.7 0.4 98
2019-10-21 04:00:00 0.7 3 Nordeste 6 Norte 0 902.5 0.3 98
2019-10-21 03:00:00 1 2 Este 8 Nordeste 0 902.5 0.6 97
2019-10-21 02:00:00 1.6 0 Calma 7 Sudoeste 0 902.3 0.6 96
2019-10-21 01:00:00 2.2 2 Oeste 6 Sudoeste 0 902.2 1 95
2019-10-21 00:00:00 3.4 2 Oeste 6 Sudoeste 0 901.9 1.4 94
2019-10-20 23:00:00 4.8 2 Sudoeste 9 Sudoeste 0 901.7 2 91
2019-10-20 22:00:00 6 3 Oeste 10 Noroeste 0 901.2 2.6 90
2019-10-20 21:00:00 6.6 3 Sudoeste 8 Sudoeste 0.2 900.5 2.6 90
2019-10-20 20:00:00 6.8 4 Sudoeste 12 Sur 2.2 899.7 2.4 92
2019-10-20 19:00:00 7.3 7 Sudoeste 12 Sur 0.4 898.6 2.2 91
2019-10-20 18:00:00 7.5 5 Sur 16 Sudoeste 2.2 897.9 1.9 89
2019-10-20 17:00:00 7.6 9 Sudoeste 23 Oeste 1 897.3 1.3 86
2019-10-20 16:00:00 9.5 5 Oeste 21 Oeste 0 896.4 0.4 76
2019-10-20 15:00:00 10.6 10 Sudoeste 27 Sudoeste 0 896 0.1 76
2019-10-20 14:00:00 9 12 Sudoeste 25 Sur 0 896 0.4 84
2019-10-20 13:00:00 8.8 11 Sudoeste 32 Sudoeste 0 896 0.7 79
2019-10-20 12:00:00 8.7 14 Sudoeste 36 Sur 0.2 895.9 1.2 82
2019-10-20 11:00:00 8.4 16 Sudoeste 30 Sur 0 895.6 1.7 83
2019-10-20 10:00:00 8.3 15 Sudoeste 28 Sudoeste 0 895.3 1.6 84
2019-10-20 09:00:00 8 16 Sudoeste 31 Sudoeste 0 894.7 2 86
2019-10-20 08:00:00 8.1 14 Sur 27 Sur 0 893.9 1.6 88
2019-10-20 07:00:00 8.4 11 Sur 31 Sudoeste 0 893.7 1.8 89
2019-10-20 06:00:00 9 11 Sudoeste 28 Sur 0 892.7 0.5 87
2019-10-20 05:00:00 9.8 12 Sudoeste 31 Sudoeste 0 892.3 -0.4 88
2019-10-20 04:00:00 10.2 16 Sudoeste 42 Sudoeste 0.4 891.9 -0.8 91
2019-10-20 03:00:00 10.1 10 Sur 32 Sur 0 892.2 -1.3 89
2019-10-20 02:00:00 10.5 12 Sur 29 Sur 0.8 892.7 -0.9 86
2019-10-20 01:00:00 11.2 10 Sur 31 Sudoeste 1.8 892.7 -0.7 88
2019-10-20 00:00:00 11.8 21 Sur 38 Sudoeste 2.8 893.5 -0.4 89
2019-10-19 23:00:00 12.9 21 Sur 41 Sudeste 0.2 893.6 -1 85
2019-10-19 22:00:00 12.4 3 Sur 27 Sudoeste 0 893.4 -1.4 87
2019-10-19 21:00:00 12.5 6 Sudoeste 22 Sur 0 893.9 -1.1 85
2019-10-19 20:00:00 12.4 14 Sudoeste 32 Sudoeste 0 894.6 -0.6 86
2019-10-19 19:00:00 12.6 18 Sur 36 Sur 0 894.8 -0.8 83
2019-10-19 18:00:00 13.3 19 Sur 39 Sudoeste 0 895 -1.4 73
2019-10-19 17:00:00 13.8 21 Sur 42 Sur 0 895.2 -2 68
2019-10-19 16:00:00 14 19 Sur 40 Sur 0 895.6 -2.3 64
2019-10-19 15:00:00 14.1 23 Sudoeste 38 Sur 0 896.4 -1.7 62
2019-10-19 14:00:00 12.1 16 Sudoeste 36 Sudoeste 0 897.2 -1.1 70
2019-10-19 13:00:00 11.2 11 Sudoeste 34 Sudoeste 0 897.9 -0.7 76
2019-10-19 12:00:00 10.9 12 Sudoeste 35 Sur 0 898.1 -0.3 74
2019-10-19 11:00:00 10.8 17 Sur 35 Sur 0 898.3 -0.2 75
2019-10-19 10:00:00 10.3 17 Sur 32 Sur 0 898.6 -0.2 78
2019-10-19 09:00:00 10.3 9 Sur 21 Sur 0 898.4 -0.7 83
2019-10-19 08:00:00 10.3 5 Sudoeste 22 Oeste 0 898.5 -0.6 81
2019-10-19 07:00:00 10.7 8 Sudoeste 21 Sudoeste 0 898.8 -0.4 79
2019-10-19 06:00:00 11.1 8 Sudoeste 27 Sudoeste 0 899.1 -0.9 78
2019-10-19 05:00:00 11.2 8 Sudoeste 24 Sudoeste 0 899.1 -1.1 80
2019-10-19 04:00:00 11.7 13 Sur 25 Sur 0 899.2 -1.3 78
2019-10-19 03:00:00 12.2 4 Sur 17 Sudoeste 0 900 -0.9 79
2019-10-19 02:00:00 12.7 4 Sudoeste 15 Sudoeste 0 900.2 -1.1 84
2019-10-19 01:00:00 13.1 8 Sudoeste 19 Sudoeste 0 900.5 -0.9 84
2019-10-19 00:00:00 13.1 9 Sur 18 Sudoeste 0 900.9 -0.6 82
2019-10-18 23:00:00 13.7 6 Sudoeste 17 Sur 0 901.3 -0.1 82
2019-10-18 22:00:00 13.8 5 Sudoeste 19 Sudoeste 0 901.4 -0.1 87
2019-10-18 21:00:00 14.8 12 Sur 30 Sudoeste 0 901.5 -0.4 83
2019-10-18 20:00:00 15.5 9 Sudoeste 24 Sur 0 901.4 -0.9 80
2019-10-18 19:00:00 16.1 13 Sudoeste 28 Sudoeste 0 901.5 -1.3 75
2019-10-18 18:00:00 16.5 15 Sudoeste 35 Sur 0 901.9 -1 71
2019-10-18 17:00:00 17.5 17 Sudoeste 33 Sudoeste 0 902.3 -1.5 66
2019-10-18 16:00:00 17 13 Sudoeste 28 Sur 0 902.8 -1.3 75
2019-10-18 15:00:00 16.2 8 Sudoeste 27 Sudoeste 0 902.9 -1.3 79
2019-10-18 14:00:00 15.4 12 Sudoeste 25 Sudoeste 0 903.8 -0.3 84
2019-10-18 13:00:00 15.1 9 Sudoeste 30 Sudoeste 0 904.1 -0.1 89
2019-10-18 12:00:00 14.3 12 Sudoeste 24 Sudoeste 0 904.2 0.5 94
2019-10-18 11:00:00 13.7 9 Sudoeste 27 Sudoeste 0.4 904.1 0.6 95
2019-10-18 10:00:00 13.4 10 Sudoeste 35 Sudoeste 0 904.2 0.6 95
2019-10-18 09:00:00 13.3 14 Sudoeste 32 Sudoeste 0.2 903.7 -0.1 95
2019-10-18 08:00:00 13.1 7 Sudoeste 24 Sudoeste 0.6 903.5 -0.5 95
2019-10-18 07:00:00 13.1 10 Sudoeste 22 Sur 0 903.6 -0.7 95
2019-10-18 06:00:00 12.8 10 Sur 24 Sudoeste 0 903.8 -1 95
2019-10-18 05:00:00 12.6 14 Sudoeste 23 Sudoeste 0.2 904 -0.8 95
2019-10-18 04:00:00 12.4 12 Sur 19 Sur 0.4 904.3 -0.9 95
2019-10-18 03:00:00 12.2 6 Sudoeste 19 Sur 0.6 904.8 -0.7 95
2019-10-18 02:00:00 12.2 12 Sur 21 Sur 0.2 904.8 -1 94
2019-10-18 01:00:00 12 9 Sudoeste 21 Sur 0 905.2 -0.9 94
2019-10-18 00:00:00 12 4 Sudoeste 21 Sur 0 905.5 -0.6 92
2019-10-17 23:00:00 11.7 10 Sur 17 Sur 0 905.8 0 92
2019-10-17 22:00:00 11.4 10 Sur 22 Sudoeste 0 906.1 0.7 92
2019-10-17 21:00:00 11.3 9 Sudoeste 25 Sudoeste 0 906.1 0.8 91
2019-10-17 20:00:00 11.3 10 Sudoeste 20 Sudoeste 0 905.8 0.7 91
2019-10-17 19:00:00 11.7 10 Sudoeste 26 Sur 0 905.4 0.1 87
2019-10-17 18:00:00 12.3 11 Sudoeste 26 Sudoeste 0 905.3 -0.2 83
2019-10-17 17:00:00 12.5 13 Sudoeste 26 Sudoeste 0 905.1 -0.9 82
2019-10-17 16:00:00 12.4 13 Sudoeste 28 Sudoeste 0 905.3 -0.9 80
2019-10-17 15:00:00 12 14 Sur 29 Sur 0 905.5 -0.8 80
2019-10-17 14:00:00 11.5 15 Sur 31 Sur 0 906 -0.1 80
2019-10-17 13:00:00 10.8 18 Sudoeste 29 Sudoeste 0 906.2 0.4 80
2019-10-17 12:00:00 10.7 12 Sur 30 Sudoeste 0 906.3 1.2 81
2019-10-17 11:00:00 10.7 18 Sudoeste 29 Sudoeste 0 906.1 1.4 76
2019-10-17 10:00:00 9.7 9 Sudoeste 20 Sudoeste 0 905.8 1.3 78
2019-10-17 09:00:00 8.1 7 Sudoeste 20 Sudoeste 0 905.1 0.8 82
2019-10-17 08:00:00 5.5 8 Sur 12 Sudoeste 0 904.7 0.7 93
2019-10-17 07:00:00 3.8 3 Norte 13 Sur 0 904.5 -0.1 90
2019-10-17 06:00:00 3.7 6 Sudoeste 10 Sur 0 904.3 -0.8 95
2019-10-17 05:00:00 1.6 0 Calma 4 Noroeste 0 904 -1.4 91
2019-10-17 04:00:00 1.9 0 Calma 4 Nordeste 0 904.6 -1.2 89
2019-10-17 03:00:00 2.6 3 Norte 5 Norte 0 905.1 -0.9 89
2019-10-17 02:00:00 3.5 2 Nordeste 8 Norte 0 905.4 -0.1 86
2019-10-17 01:00:00 4.5 2 Nordeste 6 Norte 0 905.8 0.5 82
2019-10-17 00:00:00 6 3 Norte 5 Norte 0 906 0.8 76
2019-10-16 23:00:00 8.2 2 Sudoeste 9 Sur 0 905.5 0.5 66
2019-10-16 22:00:00 11 8 Sudoeste 21 Sudoeste 0 905.3 0.8 56
2019-10-16 21:00:00 10.3 0 Calma 9 Norte 0 905.2 1 63
2019-10-16 20:00:00 12.9 4 Oeste 20 Sudoeste 0 905 0.4 55
2019-10-16 19:00:00 14.3 5 Sudoeste 25 Sudoeste 0 904.5 -0.5 50
2019-10-16 18:00:00 15.7 13 Sudoeste 28 Sudoeste 0 904.2 -1.2 44
2019-10-16 17:00:00 16.6 10 Sudoeste 32 Sur 0 904.6 -1.3 44
2019-10-16 16:00:00 16.2 18 Sudoeste 31 Sudoeste 0 905 -1.7 45
2019-10-16 15:00:00 15 13 Sudoeste 36 Sudoeste 0 905.4 -1.6 49
2019-10-16 14:00:00 14.7 15 Sudoeste 29 Sudoeste 0 905.9 -1.2 51
2019-10-16 13:00:00 13.2 14 Sudoeste 26 Sudoeste 0 906.7 -0.7 56
2019-10-16 12:00:00 11.5 7 Sudoeste 20 Sudoeste 0 907 0.1 62
2019-10-16 11:00:00 9 6 Sur 12 Sudoeste 0 907.1 0.6 73
2019-10-16 10:00:00 3.8 3 Nordeste 9 Nordeste 0 907.4 1.1 93
2019-10-16 09:00:00 0.7 3 Nordeste 7 Norte 0 906.9 0.5 96
2019-10-16 08:00:00 0.8 3 Nordeste 5 Nordeste 0 906.5 0.3 95
2019-10-16 07:00:00 1.3 4 Nordeste 7 Norte 0 906.3 -0.3 95
2019-10-16 06:00:00 1.9 3 Nordeste 7 Norte 0 906.4 -0.7 94
2019-10-16 05:00:00 2.4 4 Norte 6 Norte 0 906.2 -1 94
2019-10-16 04:00:00 3.2 2 Norte 5 Norte 0 906.6 -0.8 93
2019-10-16 03:00:00 4 0 Calma 5 Norte 0 907.1 -0.7 90
2019-10-16 02:00:00 4.4 2 Este 5 Norte 0 907.2 -0.4 89
2019-10-16 01:00:00 3.7 3 Norte 6 Nordeste 0 907.4 0.1 91
2019-10-16 00:00:00 3.8 3 Norte 7 Norte 0 907.8 0.8 88
2019-10-15 23:00:00 4.4 0 Calma 5 Norte 0 907.6 1.1 84
2019-10-15 22:00:00 5.7 0 Calma 6 Norte 0 907.3 1.2 79
2019-10-15 21:00:00 6.9 2 Nordeste 6 Este 0 907 1.1 73
2019-10-15 20:00:00 9.2 0 Calma 11 Sudoeste 0 906.5 0.6 64
2019-10-15 19:00:00 12.1 7 Sudoeste 28 Sur 0 906.1 0.4 50
2019-10-15 18:00:00 13.6 9 Sudoeste 27 Sur 0 905.9 -0.2 46
2019-10-15 17:00:00 14.7 9 Sudoeste 24 Sudoeste 0 905.9 -0.6 43
2019-10-15 16:00:00 15 12 Sudoeste 25 Sudoeste 0 905.7 -1.2 39
2019-10-15 15:00:00 14.9 7 Sudoeste 19 Sudoeste 0 906.1 -1 41
2019-10-15 14:00:00 13.5 8 Noroeste 24 Norte 0 906.5 -0.1 44
2019-10-15 13:00:00 12.5 6 Oeste 24 Noroeste 0 906.9 0.7 52
2019-10-15 12:00:00 9.9 7 Sudoeste 23 Sudoeste 0 907.1 1.3 63
2019-10-15 11:00:00 8.3 6 Oeste 27 Sudoeste 0 906.6 1.4 68
2019-10-15 10:00:00 5.7 5 Sudoeste 14 Sudoeste 0 906.2 1.3 81
2019-10-15 09:00:00 2.4 5 Sudoeste 10 Sudoeste 0 905.8 1.3 95
2019-10-15 08:00:00 1.8 4 Sudoeste 7 Sudoeste 0 905.2 1.1 93
2019-10-15 07:00:00 2.7 5 Sudoeste 10 Sudoeste 0 904.9 0.9 93
2019-10-15 06:00:00 3.9 2 Este 14 Sudoeste 0 904.5 0.5 87
2019-10-15 05:00:00 5 5 Oeste 12 Oeste 0 904.1 0.4 84
2019-10-15 04:00:00 5.2 5 Sudoeste 11 Sudoeste 0 904 0.8 85
2019-10-15 03:00:00 4.9 6 Sur 14 Sudoeste 0 904 1.3 88
2019-10-15 02:00:00 5.9 5 Sudoeste 15 Sudoeste 0 903.7 1.3 85
2019-10-15 01:00:00 6.3 4 Oeste 18 Sudoeste 0 903.2 1.3 88
2019-10-15 00:00:00 6.7 5 Sudoeste 12 Sudoeste 0 902.7 0.9 93
2019-10-14 23:00:00 6.9 0 Calma 10 Sudoeste 0 902.4 0.9 90
2019-10-14 22:00:00 7.6 0 Calma 13 Sur 0.2 901.9 2.6 90
2019-10-14 21:00:00 7.8 6 Sudoeste 24 Sudoeste 1.4 901.8 3 88
2019-10-14 20:00:00 9.2 8 Sudoeste 34 Noroeste 0.8 901.5 2.8 80
2019-10-14 19:00:00 14.7 11 Sudoeste 47 Sur 0 899.3 0.5 52
2019-10-14 18:00:00 16.5 18 Sudoeste 45 Sudoeste 0 898.8 -0.3 43
2019-10-14 17:00:00 16.8 21 Sudoeste 48 Sudoeste 0 898.7 0 48
2019-10-14 16:00:00 17.3 22 Sudoeste 45 Sur 0 898.8 -0.7 49
2019-10-14 15:00:00 16.1 16 Sudoeste 45 Sudoeste 0 899.1 -0.6 68
2019-10-14 14:00:00 17 26 Sudoeste 47 Sur 0 898.7 -1.6 66
2019-10-14 13:00:00 15.6 22 Sudoeste 44 Sudoeste 0.2 899.5 -0.7 73
2019-10-14 12:00:00 17.1 29 Sur 51 Sur 0 899.7 0.3 64
2019-10-14 11:00:00 16.2 18 Sur 45 Sudoeste 0 900.3 1.7 67
2019-10-14 10:00:00 16.4 22 Sur 40 Sur 0 900.2 1.2 68
2019-10-14 09:00:00 15.3 16 Sudoeste 34 Sudoeste 0 899.4 0.4 78
2019-10-14 08:00:00 9.5 4 Norte 9 Norte 0 898.6 -0.7 93
2019-10-14 07:00:00 9.9 0 Calma 6 Norte 0 899 -0.8 89
2019-10-14 06:00:00 10.5 0 Calma 7 Noroeste 0 899 -1.9 83
2019-10-14 05:00:00 10.5 4 Nordeste 9 Noroeste 0 899.3 -2.4 78
2019-10-14 04:00:00 10.2 2 Oeste 13 Norte 0 899.8 -2.5 76
2019-10-14 03:00:00 9.2 3 Norte 14 Norte 0 900.9 -2.1 84
2019-10-14 02:00:00 8.4 4 Nordeste 14 Norte 0 901.7 -1.6 87
2019-10-14 01:00:00 8.1 3 Nordeste 7 Nordeste 0 902.3 -0.9 88
2019-10-14 00:00:00 8.8 2 Norte 5 Nordeste 0 903 -0.2 86